createdAt,value
2023-05-05T00:02:23.710Z,50.60
2023-05-05T00:04:50.308Z,50.50
2023-05-05T00:07:16.993Z,50.50
2023-05-05T00:09:43.540Z,50.50
2023-05-05T00:12:10.110Z,50.50
2023-05-05T00:14:36.648Z,50.40
2023-05-05T00:17:04.084Z,50.40
2023-05-05T00:19:31.171Z,50.40
2023-05-05T00:21:57.694Z,50.50
2023-05-05T00:24:24.227Z,50.40
2023-05-05T00:26:51.072Z,50.40
2023-05-05T00:29:17.642Z,50.40
2023-05-05T00:31:44.207Z,50.50
2023-05-05T00:34:11.029Z,50.50
2023-05-05T00:36:37.535Z,50.60
2023-05-05T00:39:04.445Z,50.60
2023-05-05T00:41:31.517Z,50.60
2023-05-05T00:43:58.084Z,50.60
2023-05-05T00:46:26.238Z,50.60
2023-05-05T00:48:53.394Z,50.60
2023-05-05T00:51:20.699Z,50.60
2023-05-05T00:53:50.549Z,50.60
2023-05-05T00:56:17.394Z,50.60
2023-05-05T00:58:44.246Z,50.60
2023-05-05T01:01:14.153Z,50.60
2023-05-05T01:03:43.864Z,50.70
2023-05-05T01:06:15.534Z,50.70
2023-05-05T01:08:50.096Z,50.60
2023-05-05T01:11:27.046Z,50.60
2023-05-05T01:14:12.672Z,50.60
2023-05-05T01:16:41.743Z,50.60
2023-05-05T01:19:27.414Z,50.60
2023-05-05T01:21:56.336Z,50.60
2023-05-05T01:24:25.999Z,50.60
2023-05-05T01:27:11.522Z,50.60
2023-05-05T01:29:40.820Z,50.50
2023-05-05T01:32:08.528Z,50.60
2023-05-05T01:34:48.153Z,50.60
2023-05-05T01:37:37.779Z,50.60
2023-05-05T01:40:05.862Z,50.70
2023-05-05T01:42:33.861Z,50.70
2023-05-05T01:45:01.238Z,50.70
2023-05-05T01:47:28.650Z,50.70
2023-05-05T01:49:55.188Z,50.70
2023-05-05T01:52:22.704Z,50.70
2023-05-05T01:54:49.874Z,50.70
2023-05-05T01:57:16.585Z,50.70
2023-05-05T01:59:43.426Z,50.80
2023-05-05T02:02:11.204Z,50.80
2023-05-05T02:04:40.996Z,50.90
2023-05-05T02:07:08.205Z,50.90
2023-05-05T02:09:36.190Z,50.90
2023-05-05T02:12:03.777Z,51.10
2023-05-05T02:14:30.434Z,51.20
2023-05-05T02:16:58.029Z,51.20
2023-05-05T02:19:28.407Z,51.30
2023-05-05T02:21:55.082Z,51.30
2023-05-05T02:24:21.692Z,51.40
2023-05-05T02:26:49.997Z,51.60
2023-05-05T02:29:19.174Z,51.80
2023-05-05T02:31:47.392Z,51.90
2023-05-05T02:34:16.319Z,52.00
2023-05-05T02:36:44.582Z,52.10
2023-05-05T02:39:13.451Z,52.10
2023-05-05T02:41:41.271Z,52.20
2023-05-05T02:44:09.394Z,52.40
2023-05-05T02:46:37.177Z,52.50
2023-05-05T02:49:03.730Z,52.60
2023-05-05T02:51:30.259Z,52.80
2023-05-05T02:53:56.804Z,52.90
2023-05-05T02:56:31.602Z,53.00
2023-05-05T02:59:09.892Z,53.20
2023-05-05T03:01:46.355Z,53.30
2023-05-05T03:04:17.542Z,53.30
2023-05-05T03:06:47.265Z,53.40
2023-05-05T03:09:23.001Z,53.50
2023-05-05T03:11:53.786Z,53.50
2023-05-05T03:14:21.336Z,53.70
2023-05-05T03:16:48.381Z,53.90
2023-05-05T03:19:16.720Z,54.00
2023-05-05T03:21:43.435Z,54.10
2023-05-05T03:24:17.182Z,54.40
2023-05-05T03:26:44.342Z,54.50
2023-05-05T03:29:10.968Z,54.50
2023-05-05T03:31:37.582Z,54.60
2023-05-05T03:34:04.246Z,54.50
2023-05-05T03:36:30.786Z,54.40
2023-05-05T03:38:58.000Z,54.20
2023-05-05T03:41:24.853Z,54.10
2023-05-05T03:43:51.467Z,54.00
2023-05-05T03:46:18.168Z,53.80
2023-05-05T03:48:44.968Z,53.80
2023-05-05T03:51:12.348Z,53.70
2023-05-05T03:53:39.057Z,53.70
2023-05-05T03:56:05.590Z,53.60
2023-05-05T03:58:32.220Z,53.60
2023-05-05T04:00:58.884Z,53.60
2023-05-05T04:03:25.612Z,53.60
2023-05-05T04:05:52.405Z,53.50
2023-05-05T04:08:18.942Z,53.50
2023-05-05T04:10:45.689Z,53.50
2023-05-05T04:13:12.341Z,53.40
2023-05-05T04:15:43.683Z,53.40
2023-05-05T04:18:10.306Z,53.30
2023-05-05T04:20:36.877Z,53.30
2023-05-05T04:23:03.425Z,53.30
2023-05-05T04:25:30.026Z,53.30
2023-05-05T04:27:56.552Z,53.20
2023-05-05T04:30:23.161Z,53.20
2023-05-05T04:32:49.718Z,53.20
2023-05-05T04:35:16.417Z,53.20
2023-05-05T04:37:42.962Z,53.10
2023-05-05T04:40:09.761Z,53.00
2023-05-05T04:42:36.639Z,52.90
2023-05-05T04:45:03.476Z,52.70
2023-05-05T04:47:30.087Z,52.70
2023-05-05T04:49:56.697Z,52.60
2023-05-05T04:52:23.217Z,52.50
2023-05-05T04:54:49.788Z,52.50
2023-05-05T04:57:16.317Z,52.50
2023-05-05T04:59:42.852Z,52.40
2023-05-05T05:02:09.407Z,52.60
2023-05-05T05:04:36.057Z,52.70
2023-05-05T05:07:02.583Z,52.60
2023-05-05T05:09:29.421Z,52.60
2023-05-05T05:11:59.801Z,52.50
2023-05-05T05:14:27.970Z,52.40
2023-05-05T05:16:54.570Z,52.30
2023-05-05T05:19:21.278Z,52.20
2023-05-05T05:21:47.811Z,52.10
2023-05-05T05:24:14.321Z,52.00
2023-05-05T05:26:40.914Z,52.00
2023-05-05T05:29:07.436Z,52.00
2023-05-05T05:31:34.469Z,51.80
2023-05-05T05:34:01.098Z,51.00
2023-05-05T05:36:27.646Z,50.60
2023-05-05T05:38:54.153Z,49.30
2023-05-05T05:41:21.554Z,46.50
2023-05-05T05:43:48.049Z,45.80
2023-05-05T05:46:14.621Z,46.30
2023-05-05T05:48:41.261Z,46.90
2023-05-05T05:51:07.798Z,47.70
2023-05-05T05:53:34.341Z,47.60
2023-05-05T05:56:01.463Z,45.40
2023-05-05T05:58:28.047Z,42.30
2023-05-05T06:00:54.617Z,40.20
2023-05-05T06:03:21.348Z,39.50
2023-05-05T06:05:48.035Z,39.30
2023-05-05T06:08:14.556Z,39.30
2023-05-05T06:10:41.969Z,39.30
2023-05-05T06:13:08.623Z,40.10
2023-05-05T06:15:35.369Z,41.40
2023-05-05T06:18:02.161Z,42.40
2023-05-05T06:20:28.795Z,43.10
2023-05-05T06:22:55.343Z,43.50
2023-05-05T06:25:21.989Z,43.90
2023-05-05T06:27:48.780Z,44.30
2023-05-05T06:30:15.399Z,44.50
2023-05-05T06:32:41.965Z,44.50
2023-05-05T06:35:08.966Z,44.60
2023-05-05T06:37:35.857Z,44.50
2023-05-05T06:40:02.402Z,44.30
2023-05-05T06:42:30.722Z,44.00
2023-05-05T06:44:57.245Z,43.80
2023-05-05T06:47:23.795Z,43.70
2023-05-05T06:49:50.348Z,43.70
2023-05-05T06:52:16.852Z,43.80
2023-05-05T06:54:43.578Z,43.80
2023-05-05T06:57:10.123Z,43.70
2023-05-05T06:59:36.980Z,43.40
2023-05-05T07:02:03.537Z,43.40
2023-05-05T07:04:30.279Z,43.30
2023-05-05T07:06:58.342Z,43.10
2023-05-05T07:09:25.181Z,42.90
2023-05-05T07:11:51.864Z,42.90
2023-05-05T07:14:19.006Z,42.80
2023-05-05T07:16:46.510Z,42.80
2023-05-05T07:19:13.071Z,42.70
2023-05-05T07:21:39.704Z,42.60
2023-05-05T07:24:06.622Z,42.50
2023-05-05T07:26:33.219Z,42.30
2023-05-05T07:28:59.977Z,42.10
2023-05-05T07:31:26.866Z,41.90
2023-05-05T07:33:53.704Z,41.80
2023-05-05T07:36:20.577Z,41.80
2023-05-05T07:38:47.265Z,41.70
2023-05-05T07:41:14.085Z,41.90
2023-05-05T07:43:44.068Z,42.00
2023-05-05T07:46:11.372Z,42.00
2023-05-05T07:48:41.471Z,42.10
2023-05-05T07:51:08.809Z,42.10
2023-05-05T07:53:35.582Z,42.10
2023-05-05T07:56:02.251Z,42.10
2023-05-05T07:58:28.963Z,42.00
2023-05-05T08:00:55.544Z,41.90
2023-05-05T08:03:24.377Z,41.90
2023-05-05T08:05:53.438Z,41.80
2023-05-05T08:08:22.032Z,41.80
2023-05-05T08:10:49.702Z,41.80
2023-05-05T08:13:16.412Z,41.90
2023-05-05T08:15:45.019Z,41.80
2023-05-05T08:18:11.686Z,41.80
2023-05-05T08:20:38.351Z,41.80
2023-05-05T08:23:05.447Z,41.70
2023-05-05T08:25:32.082Z,41.70
2023-05-05T08:27:58.725Z,41.60
2023-05-05T08:30:25.395Z,41.50
2023-05-05T08:32:52.061Z,41.50
2023-05-05T08:35:18.850Z,41.50
2023-05-05T08:37:45.562Z,41.40
2023-05-05T08:40:14.174Z,41.50
2023-05-05T08:42:41.707Z,41.40
2023-05-05T08:45:09.771Z,41.30
2023-05-05T08:47:37.597Z,41.40
2023-05-05T08:50:06.014Z,41.40
2023-05-05T08:52:39.300Z,41.40
2023-05-05T08:55:10.084Z,41.10
2023-05-05T08:57:45.790Z,40.80
2023-05-05T09:00:13.116Z,40.90
2023-05-05T09:02:40.480Z,41.00
2023-05-05T09:05:07.976Z,40.70
2023-05-05T09:07:34.686Z,40.90
2023-05-05T09:10:03.140Z,40.80
2023-05-05T09:12:32.759Z,40.90
2023-05-05T09:15:03.468Z,40.80
2023-05-05T09:17:30.301Z,40.70
2023-05-05T09:20:09.449Z,40.70
2023-05-05T09:22:42.500Z,40.70
2023-05-05T09:25:11.018Z,40.50
2023-05-05T09:27:38.984Z,40.40
2023-05-05T09:30:06.012Z,40.20
2023-05-05T09:32:48.874Z,40.20
2023-05-05T09:35:16.582Z,40.00
2023-05-05T09:37:43.453Z,39.80
2023-05-05T09:40:10.487Z,39.60
2023-05-05T09:42:37.843Z,39.60
2023-05-05T09:45:24.987Z,39.30
2023-05-05T09:47:54.693Z,39.00
2023-05-05T09:50:23.466Z,38.30
2023-05-05T09:52:59.238Z,38.30
2023-05-05T09:55:25.899Z,38.50
2023-05-05T09:57:52.704Z,38.70
2023-05-05T10:00:19.432Z,38.90
2023-05-05T10:02:46.351Z,38.60
2023-05-05T10:05:14.214Z,38.60
2023-05-05T10:07:42.031Z,38.80
2023-05-05T10:10:13.263Z,38.90
2023-05-05T10:12:41.131Z,39.10
2023-05-05T10:15:08.823Z,38.80
2023-05-05T10:17:54.295Z,38.90
2023-05-05T10:20:33.342Z,38.90
2023-05-05T10:23:01.748Z,39.00
2023-05-05T10:25:33.784Z,39.00
2023-05-05T10:28:01.204Z,39.00
2023-05-05T10:30:31.793Z,38.80
2023-05-05T10:33:30.207Z,38.50
2023-05-05T10:35:57.187Z,38.50
2023-05-05T10:38:26.866Z,38.50
2023-05-05T10:40:55.227Z,38.50
2023-05-05T10:43:21.991Z,38.30
2023-05-05T10:45:48.962Z,38.20
2023-05-05T10:48:21.055Z,38.20
2023-05-05T10:50:51.077Z,38.00
2023-05-05T10:53:26.063Z,37.90
2023-05-05T10:55:57.291Z,38.00
2023-05-05T10:58:43.648Z,38.00
2023-05-05T11:01:34.985Z,38.00
2023-05-05T11:04:18.092Z,38.00
2023-05-05T11:07:03.486Z,38.10
2023-05-05T11:09:30.048Z,38.20
2023-05-05T11:12:04.123Z,38.10
2023-05-05T11:14:30.685Z,38.20
2023-05-05T11:16:57.256Z,38.20
2023-05-05T11:19:42.221Z,38.30
2023-05-05T11:22:09.001Z,38.30
2023-05-05T11:24:39.801Z,38.40
2023-05-05T11:27:06.433Z,38.40
2023-05-05T11:29:53.024Z,38.60
2023-05-05T11:32:19.909Z,38.70
2023-05-05T11:34:49.981Z,38.70
2023-05-05T11:37:17.143Z,38.70
2023-05-05T11:39:51.042Z,38.70
2023-05-05T11:42:23.618Z,38.80
2023-05-05T11:44:51.097Z,38.70
2023-05-05T11:47:17.678Z,38.60
2023-05-05T11:49:44.300Z,38.80
2023-05-05T11:52:14.145Z,38.80
2023-05-05T11:54:50.668Z,38.80
2023-05-05T11:57:26.913Z,38.80
2023-05-05T11:59:55.174Z,38.90
2023-05-05T12:02:22.502Z,38.90
2023-05-05T12:04:49.317Z,38.80
2023-05-05T12:07:19.443Z,38.80
2023-05-05T12:09:46.696Z,38.70
2023-05-05T12:12:13.361Z,38.80
2023-05-05T12:14:47.296Z,38.80
2023-05-05T12:17:13.881Z,38.80
2023-05-05T12:19:50.808Z,38.90
2023-05-05T12:22:21.638Z,38.90
2023-05-05T12:24:58.223Z,38.90
2023-05-05T12:27:26.415Z,38.90
2023-05-05T12:29:55.094Z,38.70
2023-05-05T12:32:21.729Z,38.70
2023-05-05T12:34:48.942Z,38.80
2023-05-05T12:37:16.839Z,38.80
2023-05-05T12:39:43.508Z,39.00
2023-05-05T12:42:10.051Z,39.10
2023-05-05T12:44:37.233Z,39.30
2023-05-05T12:47:04.622Z,39.40
2023-05-05T12:49:34.177Z,39.60
2023-05-05T12:52:00.730Z,39.70
2023-05-05T12:54:30.316Z,39.80
2023-05-05T12:56:57.277Z,40.00
2023-05-05T12:59:24.223Z,40.10
2023-05-05T13:01:55.341Z,40.20
2023-05-05T13:04:23.321Z,40.20
2023-05-05T13:06:54.025Z,40.30
2023-05-05T13:09:25.071Z,40.70
2023-05-05T13:11:52.541Z,41.10
2023-05-05T13:14:19.239Z,41.40
2023-05-05T13:16:46.053Z,41.60
2023-05-05T13:19:12.593Z,41.70
2023-05-05T13:21:39.132Z,41.80
2023-05-05T13:24:23.038Z,41.90
2023-05-05T13:26:52.689Z,41.80
2023-05-05T13:29:19.317Z,41.60
2023-05-05T13:31:45.955Z,41.40
2023-05-05T13:34:12.535Z,41.10
2023-05-05T13:36:39.100Z,41.00
2023-05-05T13:39:05.705Z,40.80
2023-05-05T13:41:32.230Z,40.70
2023-05-05T13:43:58.777Z,40.30
2023-05-05T13:46:25.357Z,40.10
2023-05-05T13:48:56.052Z,40.00
2023-05-05T13:51:23.051Z,39.80
2023-05-05T13:53:49.629Z,39.80
2023-05-05T13:56:17.786Z,39.80
2023-05-05T13:58:44.394Z,39.70
2023-05-05T14:01:11.027Z,39.50
2023-05-05T14:03:39.478Z,39.60
2023-05-05T14:06:06.603Z,39.60
2023-05-05T14:08:33.124Z,39.70
2023-05-05T14:10:59.696Z,39.70
2023-05-05T14:13:26.674Z,39.60
2023-05-05T14:15:53.720Z,39.50
2023-05-05T14:18:20.755Z,39.40
2023-05-05T14:20:47.279Z,39.40
2023-05-05T14:23:13.829Z,39.40
2023-05-05T14:25:40.368Z,39.40
2023-05-05T14:28:07.307Z,39.50
2023-05-05T14:30:33.894Z,39.40
2023-05-05T14:33:01.308Z,39.40
2023-05-05T14:35:27.957Z,39.20
2023-05-05T14:37:54.465Z,38.90
2023-05-05T14:40:21.048Z,38.80
2023-05-05T14:42:48.487Z,38.60
2023-05-05T14:45:15.010Z,38.60
2023-05-05T14:47:41.545Z,38.60
2023-05-05T14:50:09.709Z,38.70
2023-05-05T14:52:37.171Z,38.60
2023-05-05T14:55:03.790Z,38.70
2023-05-05T14:57:30.322Z,38.70
2023-05-05T14:59:56.950Z,38.70
2023-05-05T15:02:23.614Z,38.70
2023-05-05T15:04:50.295Z,38.80
2023-05-05T15:07:16.835Z,38.90
2023-05-05T15:09:43.354Z,39.00
2023-05-05T15:12:09.878Z,38.90
2023-05-05T15:14:36.654Z,39.00
2023-05-05T15:17:03.185Z,39.00
2023-05-05T15:19:29.693Z,39.10
2023-05-05T15:21:56.209Z,39.00
2023-05-05T15:24:22.765Z,39.00
2023-05-05T15:26:49.283Z,39.00
2023-05-05T15:29:15.795Z,39.00
2023-05-05T15:31:42.463Z,39.00
2023-05-05T15:34:09.024Z,39.00
2023-05-05T15:36:35.606Z,39.00
2023-05-05T15:39:02.235Z,39.10
2023-05-05T15:41:29.378Z,39.10
2023-05-05T15:43:55.988Z,39.20
2023-05-05T15:46:22.568Z,39.20
2023-05-05T15:48:49.107Z,39.20
2023-05-05T15:51:16.380Z,39.10
2023-05-05T15:53:42.938Z,39.20
2023-05-05T15:56:11.580Z,39.30
2023-05-05T15:58:38.151Z,39.30
2023-05-05T16:01:04.769Z,39.30
2023-05-05T16:03:31.510Z,39.40
2023-05-05T16:05:58.241Z,39.40
2023-05-05T16:08:24.795Z,39.40
2023-05-05T16:10:51.295Z,39.40
2023-05-05T16:13:18.358Z,39.50
2023-05-05T16:15:44.965Z,39.50
2023-05-05T16:18:11.653Z,39.50
2023-05-05T16:20:38.191Z,39.60
2023-05-05T16:23:04.809Z,39.60
2023-05-05T16:25:31.406Z,39.70
2023-05-05T16:27:57.984Z,39.70
2023-05-05T16:30:24.509Z,39.70
2023-05-05T16:32:51.788Z,39.80
2023-05-05T16:35:18.481Z,39.80
2023-05-05T16:37:45.040Z,39.90
2023-05-05T16:40:12.047Z,40.00
2023-05-05T16:42:38.660Z,40.00
2023-05-05T16:45:06.618Z,40.10
2023-05-05T16:47:33.316Z,40.20
2023-05-05T16:49:59.893Z,40.20
2023-05-05T16:52:26.491Z,40.30
2023-05-05T16:54:55.547Z,40.40
2023-05-05T16:57:22.614Z,40.50
2023-05-05T16:59:49.399Z,40.60
2023-05-05T17:02:15.970Z,40.70
2023-05-05T17:04:42.480Z,40.80
2023-05-05T17:07:08.982Z,40.90
2023-05-05T17:09:35.803Z,41.00
2023-05-05T17:12:04.050Z,41.10
2023-05-05T17:14:31.027Z,41.20
2023-05-05T17:16:57.785Z,41.30
2023-05-05T17:19:24.385Z,41.50
2023-05-05T17:21:50.898Z,41.60
2023-05-05T17:24:17.431Z,41.70
2023-05-05T17:26:44.092Z,41.80
2023-05-05T17:29:12.912Z,41.90
2023-05-05T17:31:39.768Z,42.00
2023-05-05T17:34:06.339Z,42.10
2023-05-05T17:36:33.558Z,42.20
2023-05-05T17:39:00.147Z,42.30
2023-05-05T17:41:26.970Z,42.30
2023-05-05T17:43:53.512Z,42.40
2023-05-05T17:46:20.156Z,42.60
2023-05-05T17:48:46.797Z,42.70
2023-05-05T17:51:13.348Z,43.10
2023-05-05T17:53:39.931Z,43.50
2023-05-05T17:56:08.728Z,43.50
2023-05-05T17:58:35.672Z,43.70
2023-05-05T18:01:02.251Z,43.90
2023-05-05T18:03:28.891Z,44.20
2023-05-05T18:05:55.998Z,44.90
2023-05-05T18:08:22.508Z,46.00
2023-05-05T18:10:49.037Z,46.20
2023-05-05T18:15:43.512Z,48.20
2023-05-05T18:18:10.117Z,48.00
2023-05-05T18:20:36.670Z,48.40
2023-05-05T18:23:03.200Z,49.10
2023-05-05T18:25:29.948Z,49.20
2023-05-05T18:27:56.493Z,49.60
2023-05-05T18:30:23.016Z,49.60
2023-05-05T18:32:49.611Z,49.70
2023-05-05T18:35:16.584Z,49.80
2023-05-05T18:37:43.183Z,50.00
2023-05-05T18:40:10.127Z,50.10
2023-05-05T18:42:36.681Z,50.40
2023-05-05T18:45:03.327Z,50.50
2023-05-05T18:47:29.880Z,51.10
2023-05-05T18:49:56.429Z,51.00
2023-05-05T18:52:23.032Z,51.10
2023-05-05T18:54:49.551Z,51.20
2023-05-05T18:57:16.215Z,51.50
2023-05-05T18:59:42.761Z,51.50
2023-05-05T19:02:09.308Z,51.50
2023-05-05T19:04:37.815Z,51.60
2023-05-05T19:07:04.789Z,51.60
2023-05-05T19:09:31.389Z,51.60
2023-05-05T19:11:57.949Z,51.70
2023-05-05T19:14:24.500Z,51.80
2023-05-05T19:16:51.139Z,51.80
2023-05-05T19:19:18.158Z,51.70
2023-05-05T19:21:44.696Z,51.90
2023-05-05T19:24:11.632Z,51.90
2023-05-05T19:26:38.179Z,51.90
2023-05-05T19:29:04.696Z,52.10
2023-05-05T19:31:31.544Z,52.50
2023-05-05T19:33:59.520Z,52.40
2023-05-05T19:36:26.211Z,52.50
2023-05-05T19:38:52.737Z,52.50
2023-05-05T19:41:19.446Z,52.70
2023-05-05T19:43:50.073Z,52.70
2023-05-05T19:46:17.157Z,52.80
2023-05-05T19:48:44.280Z,52.90
2023-05-05T19:51:10.877Z,53.00
2023-05-05T19:53:37.430Z,53.10
2023-05-05T19:56:04.823Z,53.30
2023-05-05T19:58:33.965Z,53.40
2023-05-05T20:01:00.521Z,53.40
2023-05-05T20:03:27.203Z,53.50
2023-05-05T20:05:53.755Z,53.70
2023-05-05T20:08:20.280Z,53.90
2023-05-05T20:10:46.860Z,53.90
2023-05-05T20:13:13.500Z,53.90
2023-05-05T20:15:40.074Z,53.90
2023-05-05T20:18:06.785Z,53.80
2023-05-05T20:20:33.476Z,54.00
2023-05-05T20:22:59.977Z,54.10
2023-05-05T20:25:26.829Z,54.20
2023-05-05T20:27:53.358Z,54.20
2023-05-05T20:30:20.058Z,54.30
2023-05-05T20:32:46.923Z,54.30
2023-05-05T20:35:13.473Z,54.30
2023-05-05T20:37:40.046Z,54.40
2023-05-05T20:40:07.343Z,54.50
2023-05-05T20:42:34.129Z,54.60
2023-05-05T20:45:01.129Z,54.60
2023-05-05T20:47:27.739Z,54.70
2023-05-05T20:49:54.317Z,54.80
2023-05-05T20:52:20.835Z,54.80
2023-05-05T20:54:47.354Z,54.80
2023-05-05T20:57:14.210Z,54.90
2023-05-05T20:59:40.713Z,55.00
2023-05-05T21:02:07.352Z,55.10
2023-05-05T21:04:33.925Z,55.20
2023-05-05T21:07:00.603Z,55.10
2023-05-05T21:09:27.244Z,55.20
2023-05-05T21:11:53.878Z,55.30
2023-05-05T21:14:20.425Z,55.60
2023-05-05T21:16:48.130Z,55.60
2023-05-05T21:19:14.725Z,55.70
2023-05-05T21:21:41.238Z,55.70
2023-05-05T21:24:08.245Z,55.70
2023-05-05T21:26:34.770Z,55.70
2023-05-05T21:29:01.485Z,55.70
2023-05-05T21:31:28.160Z,55.70
2023-05-05T21:33:54.745Z,55.70
2023-05-05T21:36:21.296Z,55.90
2023-05-05T21:38:47.928Z,56.00
2023-05-05T21:41:14.506Z,56.20
2023-05-05T21:43:41.101Z,56.40
2023-05-05T21:46:07.728Z,56.70
2023-05-05T21:48:34.389Z,56.70
2023-05-05T21:51:00.983Z,56.80
2023-05-05T21:53:27.517Z,56.90
2023-05-05T21:55:54.281Z,57.00
2023-05-05T21:58:20.889Z,57.00
2023-05-05T22:00:51.035Z,56.90
2023-05-05T22:03:19.333Z,57.00
2023-05-05T22:05:46.331Z,57.00
2023-05-05T22:08:12.991Z,57.10
2023-05-05T22:10:39.677Z,57.10
2023-05-05T22:13:06.331Z,57.20
2023-05-05T22:15:42.654Z,57.30
2023-05-05T22:18:12.969Z,57.30
2023-05-05T22:20:40.408Z,57.30
2023-05-05T22:23:07.218Z,57.50
2023-05-05T22:25:33.741Z,57.60
2023-05-05T22:28:00.516Z,58.00
2023-05-05T22:30:27.026Z,58.10
2023-05-05T22:32:53.612Z,58.20
2023-05-05T22:35:20.195Z,58.20
2023-05-05T22:37:46.741Z,58.20
2023-05-05T22:40:13.499Z,58.30
2023-05-05T22:42:40.584Z,58.50
2023-05-05T22:45:08.527Z,58.50
2023-05-05T22:47:35.301Z,58.40
2023-05-05T22:50:01.918Z,58.80
2023-05-05T22:52:28.968Z,59.10
2023-05-05T22:54:55.684Z,59.00
2023-05-05T22:57:22.228Z,59.20
2023-05-05T22:59:48.804Z,59.40
2023-05-05T23:02:15.331Z,59.50
2023-05-05T23:04:43.211Z,59.60
2023-05-05T23:07:09.800Z,60.10
2023-05-05T23:09:36.357Z,59.90
2023-05-05T23:12:02.931Z,59.80
2023-05-05T23:14:29.672Z,59.70
2023-05-05T23:16:56.223Z,59.70
2023-05-05T23:19:24.050Z,59.70
2023-05-05T23:21:53.597Z,59.60
2023-05-05T23:24:21.422Z,59.60
2023-05-05T23:26:48.013Z,59.80
2023-05-05T23:29:14.552Z,60.00
2023-05-05T23:31:41.093Z,60.20
2023-05-05T23:34:07.744Z,60.60
2023-05-05T23:36:34.266Z,60.50
2023-05-05T23:39:00.791Z,60.40
2023-05-05T23:41:27.338Z,60.30
2023-05-05T23:43:53.858Z,60.10
2023-05-05T23:46:20.583Z,60.20
2023-05-05T23:48:47.166Z,60.20
2023-05-05T23:51:13.668Z,60.10
2023-05-05T23:53:40.208Z,60.00
2023-05-05T23:56:06.945Z,60.00
2023-05-05T23:58:33.537Z,59.90
